createdAt,value
2022-10-21T00:00:09.471Z,21.60
2022-10-21T00:03:16.086Z,25.40
2022-10-21T00:05:58.850Z,23.50
2022-10-21T00:11:24.495Z,35.40
2022-10-21T00:16:49.937Z,26.70
2022-10-21T00:19:32.654Z,30.10
2022-10-21T00:24:58.365Z,24.70
2022-10-21T00:30:23.904Z,26.70
2022-10-21T00:35:58.742Z,26.70
2022-10-21T00:38:47.082Z,25.00
2022-10-21T00:41:29.890Z,26.80
2022-10-21T00:47:02.939Z,24.40
2022-10-21T00:50:00.160Z,27.10
2022-10-21T00:52:43.543Z,26.20
2022-10-21T00:55:30.002Z,25.20
2022-10-21T00:58:13.517Z,26.90
2022-10-21T01:00:58.395Z,26.50
2022-10-21T01:03:41.256Z,29.10
2022-10-21T01:09:08.685Z,30.20
2022-10-21T01:11:51.574Z,26.50
2022-10-21T01:14:57.746Z,25.70
2022-10-21T01:18:02.084Z,27.30
2022-10-21T01:21:10.378Z,25.90
2022-10-21T01:24:26.254Z,28.00
2022-10-21T01:27:37.138Z,28.00
2022-10-21T01:30:30.244Z,30.50
2022-10-21T01:33:34.756Z,28.70
2022-10-21T01:36:46.421Z,28.10
2022-10-21T01:39:31.958Z,29.80
2022-10-21T01:42:17.575Z,28.60
2022-10-21T01:45:29.277Z,27.70
2022-10-21T01:48:19.428Z,29.30
2022-10-21T01:51:06.078Z,28.00
2022-10-21T01:54:02.751Z,28.70
2022-10-21T01:56:48.461Z,35.20
2022-10-21T01:59:33.447Z,34.20
2022-10-21T02:02:18.410Z,34.60
2022-10-21T02:05:08.634Z,30.50
2022-10-21T02:07:51.557Z,30.50
2022-10-21T02:10:39.078Z,30.20
2022-10-21T02:13:26.812Z,35.70
2022-10-21T02:16:13.308Z,39.00
2022-10-21T02:18:57.491Z,31.80
2022-10-21T02:21:40.665Z,33.70
2022-10-21T02:24:52.529Z,34.10
2022-10-21T02:27:35.546Z,33.30
2022-10-21T02:30:18.777Z,36.00
2022-10-21T02:33:11.645Z,32.50
2022-10-21T02:36:20.601Z,29.00
2022-10-21T02:39:09.984Z,29.50
2022-10-21T02:41:55.801Z,27.70
2022-10-21T02:44:38.689Z,30.90
2022-10-21T02:47:23.761Z,31.50
2022-10-21T02:50:07.045Z,30.10
2022-10-21T02:52:49.815Z,32.70
2022-10-21T02:58:15.208Z,29.70
2022-10-21T03:03:40.659Z,30.10
2022-10-21T03:06:24.146Z,29.30
2022-10-21T03:09:07.030Z,29.10
2022-10-21T03:11:49.837Z,31.30
2022-10-21T03:17:15.202Z,34.80
2022-10-21T03:19:57.920Z,31.30
2022-10-21T03:25:23.433Z,34.60
2022-10-21T03:28:06.253Z,31.60
2022-10-21T03:33:31.665Z,32.50
2022-10-21T03:36:14.404Z,33.10
2022-10-21T03:41:39.908Z,35.40
2022-10-21T03:47:06.566Z,31.00
2022-10-21T03:49:49.359Z,33.20
2022-10-21T03:52:32.020Z,34.10
2022-10-21T03:55:14.677Z,29.70
2022-10-21T03:57:57.263Z,37.50
2022-10-21T04:00:40.828Z,35.50
2022-10-21T04:03:23.395Z,35.00
2022-10-21T04:06:06.095Z,32.80
2022-10-21T04:08:48.946Z,32.40
2022-10-21T04:11:31.753Z,31.20
2022-10-21T04:17:06.906Z,34.30
2022-10-21T04:19:50.221Z,36.30
2022-10-21T04:25:16.869Z,31.30
2022-10-21T04:27:59.895Z,37.50
2022-10-21T04:30:42.596Z,35.00
2022-10-21T04:36:08.120Z,36.60
2022-10-21T04:38:50.933Z,34.90
2022-10-21T04:44:16.453Z,33.80
2022-10-21T04:46:59.370Z,36.10
2022-10-21T04:52:24.790Z,36.40
2022-10-21T04:57:50.416Z,34.40
2022-10-21T05:03:15.800Z,36.10
2022-10-21T05:08:41.328Z,35.30
2022-10-21T05:14:06.672Z,36.80
2022-10-21T05:16:49.589Z,30.60
2022-10-21T05:19:32.738Z,40.40
2022-10-21T05:22:15.411Z,36.70
2022-10-21T05:24:58.148Z,32.50
2022-10-21T05:27:40.816Z,38.80
2022-10-21T05:30:23.649Z,33.90
2022-10-21T05:36:02.077Z,37.90
2022-10-21T05:38:44.878Z,38.20
2022-10-21T05:44:10.243Z,40.50
2022-10-21T05:46:52.945Z,43.40
2022-10-21T05:49:35.700Z,42.10
2022-10-21T05:52:18.525Z,44.00
2022-10-21T05:57:43.948Z,37.40
2022-10-21T06:00:26.706Z,36.50
2022-10-21T06:06:00.380Z,51.40
2022-10-21T06:08:43.350Z,46.80
2022-10-21T06:11:26.077Z,40.90
2022-10-21T06:16:52.440Z,35.90
2022-10-21T06:19:35.455Z,32.80
2022-10-21T06:22:18.475Z,35.70
2022-10-21T06:25:01.253Z,37.60
2022-10-21T06:27:44.463Z,36.20
2022-10-21T06:33:09.827Z,38.10
2022-10-21T06:38:37.114Z,34.80
2022-10-21T06:41:19.854Z,36.90
2022-10-21T06:46:45.097Z,34.30
2022-10-21T06:52:10.641Z,43.70
2022-10-21T06:57:36.735Z,33.70
2022-10-21T07:00:20.178Z,37.20
2022-10-21T07:03:03.078Z,37.10
2022-10-21T07:08:46.291Z,32.50
2022-10-21T07:11:33.352Z,44.40
2022-10-21T07:14:16.150Z,35.90
2022-10-21T07:19:42.098Z,30.10
2022-10-21T07:22:24.876Z,30.30
2022-10-21T07:27:51.453Z,28.40
2022-10-21T07:30:42.963Z,34.10
2022-10-21T07:33:27.003Z,33.10
2022-10-21T07:36:11.349Z,32.60
2022-10-21T07:38:55.514Z,31.40
2022-10-21T07:41:41.628Z,31.70
2022-10-21T07:44:26.322Z,32.20
2022-10-21T07:47:09.222Z,30.30
2022-10-21T07:49:52.468Z,36.00
2022-10-21T07:52:39.481Z,33.80
2022-10-21T07:55:24.578Z,38.30
2022-10-21T07:58:07.364Z,38.60
2022-10-21T08:00:50.181Z,38.20
2022-10-21T08:03:33.702Z,42.10
2022-10-21T08:06:17.967Z,36.80
2022-10-21T08:09:02.145Z,38.70
2022-10-21T08:11:45.615Z,39.60
2022-10-21T08:14:28.595Z,35.90
2022-10-21T08:17:11.286Z,37.00
2022-10-21T08:22:41.922Z,31.40
2022-10-21T08:25:25.631Z,37.00
2022-10-21T08:28:08.426Z,37.00
2022-10-21T08:30:51.869Z,36.60
2022-10-21T08:33:36.201Z,36.30
2022-10-21T08:36:21.844Z,38.80
2022-10-21T08:39:08.885Z,34.90
2022-10-21T08:42:11.193Z,35.90
2022-10-21T08:45:01.356Z,32.40
2022-10-21T08:47:48.604Z,37.60
2022-10-21T08:50:38.975Z,33.70
2022-10-21T08:53:30.412Z,34.30
2022-10-21T08:56:19.882Z,32.90
2022-10-21T08:59:03.071Z,30.70
2022-10-21T09:01:50.432Z,31.70
2022-10-21T09:05:29.122Z,35.10
2022-10-21T09:08:35.105Z,35.10
2022-10-21T09:11:33.426Z,34.50
2022-10-21T09:14:38.345Z,35.30
2022-10-21T09:17:55.079Z,40.50
2022-10-21T09:20:42.379Z,33.80
2022-10-21T09:23:28.102Z,34.40
2022-10-21T09:26:32.637Z,37.10
2022-10-21T09:29:15.277Z,35.00
2022-10-21T09:32:20.209Z,29.50
2022-10-21T09:35:15.861Z,31.90
2022-10-21T09:38:10.696Z,30.50
2022-10-21T09:41:01.557Z,30.30
2022-10-21T09:43:45.074Z,40.00
2022-10-21T09:46:28.092Z,34.70
2022-10-21T09:49:54.124Z,35.80
2022-10-21T09:52:31.204Z,33.00
2022-10-21T09:55:15.621Z,31.80
2022-10-21T09:58:01.379Z,28.50
2022-10-21T10:00:48.284Z,29.80
2022-10-21T10:03:36.744Z,31.00
2022-10-21T10:06:34.088Z,31.40
2022-10-21T10:09:31.593Z,28.80
2022-10-21T10:12:17.128Z,28.70
2022-10-21T10:15:25.865Z,29.40
2022-10-21T10:18:28.989Z,30.20
2022-10-21T10:21:17.671Z,25.70
2022-10-21T10:24:03.211Z,29.50
2022-10-21T10:26:47.071Z,28.40
2022-10-21T10:29:30.065Z,28.30
2022-10-21T10:32:16.584Z,29.70
2022-10-21T10:35:05.566Z,27.70
2022-10-21T10:37:49.676Z,27.40
2022-10-21T10:40:43.429Z,29.70
2022-10-21T10:43:32.129Z,27.80
2022-10-21T10:46:34.291Z,26.60
2022-10-21T10:49:25.624Z,30.80
2022-10-21T10:52:11.098Z,27.70
2022-10-21T10:55:17.947Z,27.00
2022-10-21T10:58:13.476Z,27.50
2022-10-21T11:01:03.022Z,28.10
2022-10-21T11:03:55.168Z,24.80
2022-10-21T11:06:48.473Z,25.60
2022-10-21T11:09:34.318Z,26.60
2022-10-21T11:12:23.679Z,25.00
2022-10-21T11:15:13.956Z,24.50
2022-10-21T11:18:24.221Z,24.10
2022-10-21T11:21:13.634Z,24.70
2022-10-21T11:24:08.683Z,25.00
2022-10-21T11:26:57.683Z,28.50
2022-10-21T11:29:40.388Z,22.10
2022-10-21T11:32:34.472Z,23.40
2022-10-21T11:36:11.507Z,25.50
2022-10-21T11:39:12.432Z,25.20
2022-10-21T11:42:06.528Z,26.30
2022-10-21T11:45:20.467Z,24.70
2022-10-21T11:48:49.186Z,27.20
2022-10-21T11:51:56.924Z,31.50
2022-10-21T11:55:07.891Z,26.60
2022-10-21T11:58:18.876Z,26.70
2022-10-21T12:01:24.200Z,24.30
2022-10-21T12:04:13.461Z,24.30
2022-10-21T12:07:11.229Z,27.80
2022-10-21T12:10:00.473Z,20.90
2022-10-21T12:12:47.711Z,23.50
2022-10-21T12:15:43.618Z,22.30
2022-10-21T12:18:29.633Z,27.60
2022-10-21T12:21:19.020Z,22.80
2022-10-21T12:24:30.833Z,23.90
2022-10-21T12:27:23.635Z,22.80
2022-10-21T12:30:13.171Z,22.10
2022-10-21T12:33:08.216Z,21.40
2022-10-21T12:35:55.022Z,22.70
2022-10-21T12:38:55.739Z,26.80
2022-10-21T12:41:44.682Z,26.30
2022-10-21T12:44:28.461Z,25.00
2022-10-21T12:47:31.765Z,24.00
2022-10-21T12:50:14.404Z,26.90
2022-10-21T12:53:21.760Z,24.00
2022-10-21T12:56:11.053Z,31.80
2022-10-21T12:59:04.527Z,28.80
2022-10-21T13:02:08.133Z,28.40
2022-10-21T13:04:56.056Z,25.10
2022-10-21T13:07:39.712Z,26.70
2022-10-21T13:10:26.123Z,28.00
2022-10-21T13:13:30.544Z,26.90
2022-10-21T13:16:19.751Z,23.60
2022-10-21T13:19:06.005Z,23.10
2022-10-21T13:21:49.560Z,25.90
2022-10-21T13:24:34.114Z,23.80
2022-10-21T13:30:29.808Z,27.30
2022-10-21T13:33:25.489Z,24.40
2022-10-21T13:36:08.149Z,27.00
2022-10-21T13:38:55.732Z,25.40
2022-10-21T13:41:38.751Z,21.60
2022-10-21T13:44:36.108Z,24.70
2022-10-21T13:47:32.763Z,21.50
2022-10-21T13:50:28.018Z,22.40
2022-10-21T13:53:33.078Z,28.70
2022-10-21T13:56:20.774Z,23.00
2022-10-21T13:59:05.124Z,27.00
2022-10-21T14:01:51.351Z,27.70
2022-10-21T14:04:40.581Z,25.80
2022-10-21T14:07:23.625Z,24.90
2022-10-21T14:10:08.159Z,28.20
2022-10-21T14:12:51.828Z,27.00
2022-10-21T14:15:41.939Z,27.70
2022-10-21T14:18:37.347Z,25.50
2022-10-21T14:21:23.865Z,26.30
2022-10-21T14:24:06.957Z,23.80
2022-10-21T14:26:49.770Z,24.20
2022-10-21T14:29:35.475Z,25.00
2022-10-21T14:32:20.921Z,30.80
2022-10-21T14:35:10.219Z,26.80
2022-10-21T14:37:59.074Z,24.00
2022-10-21T14:40:42.868Z,26.60
2022-10-21T14:43:53.516Z,25.80
2022-10-21T14:46:42.203Z,24.20
2022-10-21T14:49:28.712Z,24.20
2022-10-21T14:52:24.874Z,26.00
2022-10-21T14:55:13.571Z,27.90
2022-10-21T14:58:05.276Z,23.30
2022-10-21T15:01:00.380Z,30.50
2022-10-21T15:03:46.246Z,25.00
2022-10-21T15:06:34.571Z,26.00
2022-10-21T15:09:20.668Z,26.00
2022-10-21T15:12:18.696Z,26.20
2022-10-21T15:15:03.480Z,29.40
2022-10-21T15:17:46.268Z,24.40
2022-10-21T15:20:31.337Z,30.60
2022-10-21T15:23:20.120Z,25.60
2022-10-21T15:26:11.018Z,31.70
2022-10-21T15:28:54.835Z,24.50
2022-10-21T15:31:37.526Z,25.90
2022-10-21T15:34:20.459Z,29.70
2022-10-21T15:37:03.560Z,25.20
2022-10-21T15:39:46.272Z,30.80
2022-10-21T15:42:28.978Z,30.90
2022-10-21T15:45:18.340Z,32.90
2022-10-21T15:48:01.007Z,33.00
2022-10-21T15:50:44.681Z,34.20
2022-10-21T15:53:27.380Z,34.60
2022-10-21T15:56:16.464Z,38.00
2022-10-21T15:59:00.387Z,39.50
2022-10-21T16:01:46.576Z,34.50
2022-10-21T16:04:29.354Z,40.80
2022-10-21T16:07:21.779Z,39.80
2022-10-21T16:10:22.898Z,38.20
2022-10-21T16:13:05.584Z,41.20
2022-10-21T16:15:48.313Z,37.70
2022-10-21T16:18:31.387Z,45.30
2022-10-21T16:21:15.784Z,48.40
2022-10-21T16:23:58.705Z,42.40
2022-10-21T16:26:47.698Z,44.00
2022-10-21T16:29:30.412Z,42.70
2022-10-21T16:32:13.331Z,48.30
2022-10-21T16:34:56.108Z,45.80
2022-10-21T16:37:40.214Z,42.20
2022-10-21T16:40:26.681Z,41.60
2022-10-21T16:43:09.364Z,41.00
2022-10-21T16:45:52.208Z,42.90
2022-10-21T16:48:35.016Z,45.60
2022-10-21T16:51:18.238Z,43.50
2022-10-21T16:54:00.948Z,48.90
2022-10-21T16:56:43.765Z,46.90
2022-10-21T16:59:26.501Z,41.70
2022-10-21T17:02:18.067Z,45.00
2022-10-21T17:05:00.852Z,43.60
2022-10-21T17:07:43.610Z,45.50
2022-10-21T17:10:26.432Z,43.10
2022-10-21T17:13:11.181Z,45.60
2022-10-21T17:15:53.887Z,48.10
2022-10-21T17:18:36.802Z,45.70
2022-10-21T17:21:22.775Z,42.90
2022-10-21T17:24:06.339Z,42.60
2022-10-21T17:26:49.129Z,43.30
2022-10-21T17:29:31.941Z,42.10
2022-10-21T17:32:14.856Z,48.30
2022-10-21T17:34:58.533Z,45.10
2022-10-21T17:37:41.846Z,37.80
2022-10-21T17:40:27.264Z,39.60
2022-10-21T17:43:10.120Z,44.40
2022-10-21T17:45:52.984Z,48.80
2022-10-21T17:48:35.728Z,50.60
2022-10-21T17:51:19.459Z,50.20
2022-10-21T17:54:02.265Z,56.00
2022-10-21T17:56:45.646Z,70.70
2022-10-21T17:59:28.509Z,59.00
2022-10-21T18:02:11.321Z,52.50
2022-10-21T18:04:55.905Z,63.80
2022-10-21T18:07:39.230Z,60.00
2022-10-21T18:10:22.257Z,59.60
2022-10-21T18:13:05.561Z,52.50
2022-10-21T18:15:50.553Z,55.30
2022-10-21T18:18:34.895Z,53.00
2022-10-21T18:21:21.877Z,50.80
2022-10-21T18:24:09.890Z,47.20
2022-10-21T18:26:55.408Z,50.30
2022-10-21T18:29:38.836Z,49.70
2022-10-21T18:32:22.216Z,49.30
2022-10-21T18:35:06.154Z,53.90
2022-10-21T18:37:50.911Z,53.50
2022-10-21T18:40:34.352Z,58.10
2022-10-21T18:43:17.462Z,46.90
2022-10-21T18:46:01.110Z,42.20
2022-10-21T18:48:45.367Z,45.40
2022-10-21T18:51:29.068Z,43.30
2022-10-21T18:54:13.823Z,43.30
2022-10-21T18:56:57.149Z,41.20
2022-10-21T18:59:41.291Z,36.50
2022-10-21T19:02:24.922Z,39.20
2022-10-21T19:05:08.964Z,40.30
2022-10-21T19:07:53.924Z,38.20
2022-10-21T19:10:37.896Z,36.20
2022-10-21T19:13:21.336Z,32.70
2022-10-21T19:16:05.152Z,37.00
2022-10-21T19:18:50.394Z,35.50
2022-10-21T19:21:35.054Z,36.50
2022-10-21T19:24:21.272Z,35.70
2022-10-21T19:27:04.920Z,34.60
2022-10-21T19:29:52.731Z,37.10
2022-10-21T19:32:37.022Z,31.40
2022-10-21T19:35:20.751Z,34.40
2022-10-21T19:38:11.240Z,42.60
2022-10-21T19:40:59.610Z,41.20
2022-10-21T19:43:44.670Z,37.10
2022-10-21T19:46:31.178Z,33.00
2022-10-21T19:49:15.628Z,33.50
2022-10-21T19:52:00.167Z,36.80
2022-10-21T19:54:44.353Z,31.00
2022-10-21T19:57:28.280Z,35.30
2022-10-21T20:00:13.461Z,35.00
2022-10-21T20:02:58.792Z,35.30
2022-10-21T20:05:42.035Z,34.40
2022-10-21T20:11:16.180Z,33.30
2022-10-21T20:13:59.192Z,38.90
2022-10-21T20:16:43.390Z,38.30
2022-10-21T20:19:26.714Z,37.10
2022-10-21T20:22:09.592Z,33.10
2022-10-21T20:24:52.787Z,33.00
2022-10-21T20:27:35.584Z,35.10
2022-10-21T20:30:18.475Z,35.40
2022-10-21T20:33:01.290Z,36.00
2022-10-21T20:35:44.426Z,38.30
2022-10-21T20:38:27.174Z,33.50
2022-10-21T20:41:15.379Z,35.30
2022-10-21T20:43:58.041Z,33.90
2022-10-21T20:46:40.776Z,33.90
2022-10-21T20:49:23.594Z,35.20
2022-10-21T20:52:06.259Z,34.70
2022-10-21T20:54:51.773Z,34.50
2022-10-21T20:57:37.148Z,35.00
2022-10-21T21:00:20.608Z,32.10
2022-10-21T21:03:03.549Z,35.30
2022-10-21T21:05:46.223Z,32.60
2022-10-21T21:08:28.956Z,35.70
2022-10-21T21:11:11.923Z,34.00
2022-10-21T21:13:55.234Z,34.40
2022-10-21T21:16:37.956Z,33.70
2022-10-21T21:19:20.973Z,33.30
2022-10-21T21:22:05.218Z,32.60
2022-10-21T21:24:48.781Z,30.40
2022-10-21T21:27:32.487Z,33.80
2022-10-21T21:30:15.196Z,36.30
2022-10-21T21:32:58.005Z,31.60
2022-10-21T21:35:40.722Z,32.20
2022-10-21T21:38:25.286Z,32.10
2022-10-21T21:41:10.573Z,31.50
2022-10-21T21:43:54.917Z,30.00
2022-10-21T21:46:37.697Z,31.90
2022-10-21T21:49:20.610Z,33.00
2022-10-21T21:52:03.344Z,28.40
2022-10-21T21:54:46.046Z,31.40
2022-10-21T21:57:29.150Z,26.40
2022-10-21T22:00:12.462Z,29.40
2022-10-21T22:02:55.412Z,26.10
2022-10-21T22:05:38.203Z,26.70
2022-10-21T22:08:20.859Z,28.10
2022-10-21T22:11:06.550Z,25.80
2022-10-21T22:13:49.652Z,24.00
2022-10-21T22:16:32.415Z,26.10
2022-10-21T22:19:15.090Z,24.30
2022-10-21T22:21:58.659Z,24.50
2022-10-21T22:24:41.497Z,25.20
2022-10-21T22:27:24.168Z,25.50
2022-10-21T22:30:09.280Z,25.30
2022-10-21T22:32:52.128Z,25.70
2022-10-21T22:35:34.852Z,26.20
2022-10-21T22:38:17.714Z,27.00
2022-10-21T22:41:02.655Z,29.00
2022-10-21T22:43:45.562Z,30.70
2022-10-21T22:46:34.372Z,31.80
2022-10-21T22:49:17.698Z,27.90
2022-10-21T22:52:00.398Z,27.50
2022-10-21T22:54:49.540Z,28.50
2022-10-21T22:57:32.828Z,31.30
2022-10-21T23:00:15.565Z,31.50
2022-10-21T23:02:58.405Z,33.50
2022-10-21T23:05:41.591Z,31.80
2022-10-21T23:08:25.925Z,31.30
2022-10-21T23:11:08.836Z,35.80
2022-10-21T23:14:02.492Z,30.70
2022-10-21T23:16:46.465Z,31.70
2022-10-21T23:19:29.348Z,38.60
2022-10-21T23:22:13.082Z,33.20
2022-10-21T23:24:55.820Z,35.20
2022-10-21T23:27:38.631Z,33.90
2022-10-21T23:30:21.824Z,33.10
2022-10-21T23:33:04.947Z,38.90
2022-10-21T23:35:47.706Z,35.00
2022-10-21T23:38:30.475Z,36.90
2022-10-21T23:41:13.146Z,34.70
2022-10-21T23:43:55.982Z,35.70
2022-10-21T23:46:38.743Z,38.50
2022-10-21T23:49:21.940Z,38.00
2022-10-21T23:52:06.288Z,37.00
2022-10-21T23:54:48.965Z,38.80
2022-10-21T23:57:32.315Z,42.40
